PWSweather.com
Personal Weather Stations
Station Observations
NCCALABA57
The Farm, Calabash, NC 28467

The FarmCalabash, NC 28467

Lat: 33.9246539, Lon: -78.5696509

Elevation: 44

Station Type: Davis Vantage Pro 2

Latest ConditionsUpdated 9:30:00 PM EDT Sunday, May 19, 2019
Currently Today's Max Today's Min Today's Average
Temperature 74.9°F23.8°C 84.9°F29.4°C 66.5°F19.2°C 76.2°F24.6°C
Dew Point 70.8°F21.6°C 74.4°F23.6°C 65.6°F18.7°C 70.7°F21.5°C
Winds 1.2 mph S1.9 kmh S 12.7 mph -20.4 kmh - - 3.3 mph 5.3 kmh
Wind Gusts 4.6 mph7.4 kmh 16.1 mph25.9 kmh - -
Humidity 87% 100% 69% 84%
Pressure 30.11 in1019.6 mb 30.16 in1021.3 mb 30.09 in1019.0 mb -
Precipitation - 0.01 in0.3 mm - -
Hour Temp Dew Point Humidity Winds Wind Gusts Pressure Precip Precip Rate Daily Precip Total
09:30 PM 74.9°F23.8°C 70.8°F21.6°C 87% 1.2 mph S1.9 kmh S 4.6 mph7.4 kmh 30.11 in1019.6 mb - 0.00 in0.0 mm 0.01 in0.3 mm
09:00 PM 75.2°F24.0°C 70.8°F21.6°C 86% 5.8 mph SSE9.3 kmh SSE 6.9 mph11.1 kmh 30.10 in1019.3 mb - 0.00 in0.0 mm 0.01 in0.3 mm
08:30 PM 75.6°F24.2°C 70.8°F21.6°C 85% 3.5 mph SSE5.6 kmh SSE 6.9 mph11.1 kmh 30.09 in1019.0 mb - 0.00 in0.0 mm 0.01 in0.3 mm
08:00 PM 76.3°F24.6°C 71.4°F21.9°C 85% 4.6 mph S7.4 kmh S 6.9 mph11.1 kmh 30.09 in1019.0 mb - 0.00 in0.0 mm 0.01 in0.3 mm
07:30 PM 77.1°F25.1°C 71.5°F21.9°C 83% 5.8 mph SSE9.3 kmh SSE 9.2 mph14.8 kmh 30.09 in1019.0 mb - 0.00 in0.0 mm 0.01 in0.3 mm
07:00 PM 77.7°F25.4°C 71.8°F22.1°C 82% 1.2 mph SSE1.9 kmh SSE 1.2 mph1.9 kmh 30.10 in1019.3 mb - 0.00 in0.0 mm 0.01 in0.3 mm
06:30 PM 78.5°F25.8°C 72.6°F22.6°C 82% 4.6 mph SE7.4 kmh SE 6.9 mph11.1 kmh 30.10 in1019.3 mb - 0.00 in0.0 mm 0.01 in0.3 mm
06:00 PM 79.0°F26.1°C 72.3°F22.4°C 80% 9.2 mph SSE14.8 kmh SSE 15.0 mph24.1 kmh 30.10 in1019.3 mb - 0.00 in0.0 mm 0.01 in0.3 mm
05:30 PM 80.1°F26.7°C 72.6°F22.6°C 78% 6.9 mph SE11.1 kmh SE 8.1 mph13.0 kmh 30.11 in1019.6 mb - 0.00 in0.0 mm 0.01 in0.3 mm
05:00 PM 80.6°F27.0°C 72.8°F22.7°C 77% 4.6 mph S7.4 kmh S 6.9 mph11.1 kmh 30.11 in1019.6 mb - 0.00 in0.0 mm 0.01 in0.3 mm
04:00 PM 82.1°F27.8°C 72.6°F22.6°C 73% 3.5 mph SSE5.6 kmh SSE 6.9 mph11.1 kmh 30.12 in1020.0 mb - 0.00 in0.0 mm 0.01 in0.3 mm
03:30 PM 83.6°F28.7°C 73.2°F22.9°C 71% 4.6 mph S7.4 kmh S 6.9 mph11.1 kmh 30.13 in1020.3 mb - 0.00 in0.0 mm 0.01 in0.3 mm
03:00 PM 82.8°F28.2°C 71.6°F22.0°C 69% 12.7 mph SSE20.4 kmh SSE 16.1 mph25.9 kmh 30.14 in1020.7 mb - 0.00 in0.0 mm 0.01 in0.3 mm
02:30 PM 83.2°F28.4°C 73.2°F22.9°C 72% 10.4 mph SE16.7 kmh SE 11.5 mph18.5 kmh 30.15 in1021.0 mb - 0.00 in0.0 mm 0.01 in0.3 mm
02:00 PM 82.7°F28.2°C 71.9°F22.2°C 70% 10.4 mph S16.7 kmh S 13.8 mph22.2 kmh 30.15 in1021.0 mb - 0.00 in0.0 mm 0.01 in0.3 mm
01:30 PM 83.6°F28.7°C 74.0°F23.3°C 73% 4.6 mph S7.4 kmh S 6.9 mph11.1 kmh 30.15 in1021.0 mb - 0.00 in0.0 mm 0.01 in0.3 mm
01:00 PM 84.9°F29.4°C 74.4°F23.6°C 71% 5.8 mph SSE9.3 kmh SSE 5.8 mph9.3 kmh 30.15 in1021.0 mb - 0.00 in0.0 mm 0.01 in0.3 mm
12:30 PM 82.9°F28.3°C 73.8°F23.2°C 74% 6.9 mph SSE11.1 kmh SSE 11.5 mph18.5 kmh 30.15 in1021.0 mb - 0.00 in0.0 mm 0.01 in0.3 mm
12:00 PM 83.0°F28.3°C 73.8°F23.2°C 74% 4.6 mph S7.4 kmh S 9.2 mph14.8 kmh 30.16 in1021.3 mb - 0.00 in0.0 mm 0.01 in0.3 mm
11:30 AM 82.6°F28.1°C 73.1°F22.8°C 73% 6.9 mph SSE11.1 kmh SSE 9.2 mph14.8 kmh 30.16 in1021.3 mb - 0.00 in0.0 mm 0.01 in0.3 mm
11:00 AM 83.2°F28.4°C 72.8°F22.7°C 71% 4.6 mph S7.4 kmh S 4.6 mph7.4 kmh 30.16 in1021.3 mb - 0.00 in0.0 mm 0.01 in0.3 mm
10:30 AM 82.3°F27.9°C 72.8°F22.7°C 73% 4.6 mph SSE7.4 kmh SSE 6.9 mph11.1 kmh 30.14 in1020.7 mb - 0.00 in0.0 mm 0.01 in0.3 mm
10:00 AM 81.3°F27.4°C 72.7°F22.6°C 75% 4.6 mph S7.4 kmh S 8.1 mph13.0 kmh 30.14 in1020.7 mb - 0.00 in0.0 mm 0.01 in0.3 mm
09:30 AM 80.8°F27.1°C 73.7°F23.2°C 79% 2.3 mph SSW3.7 kmh SSW 3.5 mph5.6 kmh 30.14 in1020.7 mb - 0.00 in0.0 mm 0.01 in0.3 mm
09:00 AM 78.4°F25.8°C 73.2°F22.9°C 84% 2.3 mph SSE3.7 kmh SSE 4.6 mph7.4 kmh 30.14 in1020.7 mb - 0.00 in0.0 mm 0.01 in0.3 mm
08:30 AM 75.0°F23.9°C 72.5°F22.5°C 92% 1.2 mph SE1.9 kmh SE 3.5 mph5.6 kmh 30.14 in1020.7 mb - 0.01 in0.3 mm 0.01 in0.3 mm
08:00 AM 72.0°F22.2°C 72.0°F22.2°C 100% Calm Calm -- 30.13 in1020.3 mb - 0.01 in0.3 mm 0.01 in0.3 mm
07:30 AM 68.3°F20.2°C 68.3°F20.2°C 100% Calm Calm -- 30.13 in1020.3 mb - 0.00 in0.0 mm 0.00 in0.0 mm
07:00 AM 66.7°F19.3°C 65.8°F18.8°C 97% Calm Calm -- 30.13 in1020.3 mb - 0.00 in0.0 mm 0.00 in0.0 mm
06:30 AM 66.5°F19.2°C 65.6°F18.7°C 97% Calm Calm -- 30.12 in1020.0 mb - 0.00 in0.0 mm 0.00 in0.0 mm
06:00 AM 67.2°F19.6°C 66.4°F19.1°C 97% Calm Calm -- 30.12 in1020.0 mb - 0.00 in0.0 mm 0.00 in0.0 mm
05:30 AM 67.9°F19.9°C 67.0°F19.4°C 97% Calm Calm -- 30.11 in1019.6 mb - 0.00 in0.0 mm 0.00 in0.0 mm
05:00 AM 68.4°F20.2°C 67.2°F19.6°C 96% Calm Calm -- 30.10 in1019.3 mb - 0.00 in0.0 mm 0.00 in0.0 mm
04:30 AM 69.8°F21.0°C 68.7°F20.4°C 96% Calm Calm -- 30.10 in1019.3 mb - 0.00 in0.0 mm 0.00 in0.0 mm
04:00 AM 70.1°F21.2°C 68.9°F20.5°C 96% Calm Calm -- 30.09 in1019.0 mb - 0.00 in0.0 mm 0.00 in0.0 mm
03:30 AM 70.2°F21.2°C 69.0°F20.6°C 96% Calm Calm -- 30.09 in1019.0 mb - 0.00 in0.0 mm 0.00 in0.0 mm
03:00 AM 70.6°F21.4°C 69.1°F20.6°C 95% Calm Calm -- 30.09 in1019.0 mb - 0.00 in0.0 mm 0.00 in0.0 mm
02:30 AM 70.9°F21.6°C 69.0°F20.6°C 94% Calm Calm -- 30.09 in1019.0 mb - 0.00 in0.0 mm 0.00 in0.0 mm
02:00 AM 70.7°F21.5°C 68.2°F20.1°C 92% Calm Calm 1.2 mph1.9 kmh 30.09 in1019.0 mb - 0.00 in0.0 mm 0.00 in0.0 mm
01:30 AM 71.5°F21.9°C 67.4°F19.7°C 87% Calm Calm -- 30.10 in1019.3 mb - 0.00 in0.0 mm 0.00 in0.0 mm
01:00 AM 72.5°F22.5°C 67.0°F19.4°C 83% Calm Calm -- 30.10 in1019.3 mb - 0.00 in0.0 mm 0.00 in0.0 mm
12:30 AM 72.8°F22.7°C 65.9°F18.8°C 79% 2.3 mph SE3.7 kmh SE 2.3 mph3.7 kmh 30.10 in1019.3 mb - 0.00 in0.0 mm 0.00 in0.0 mm
12:00 AM 73.5°F23.1°C 66.9°F19.4°C 80% 1.2 mph S1.9 kmh S 3.5 mph5.6 kmh 30.10 in1019.3 mb - 0.00 in0.0 mm 0.00 in0.0 mm